x

Lake Simcoe (45151) Wave Buoy

7:00am - Wed 5th Aug 2015 All times are CDT. -5 hours from GMT.

  • Sig Wave height 1.0ft
  • Peak Period 3s
  • Wind
    13mph, 16mph gusts
  • Sea Temp 71°f
  • Air Temp 62°f
  • Sea Pressure 1014mb
  • Lake Simcoe
  • Lake Simcoe

More Historic Weather Station data

Upgrade to MSW Pro to gain access to the past 30 days of data for over 8000 Wavebouys and Weather Stations around the globe.

Join Pro

Comparision Forecast

View Surf forecast
   
Wed 08/05 7:00am 1ft 3s 13 16 mph 1014mb 71f 62f
6:00am 0.7ft 3s 13 18 mph 1013.9mb 71f 61f
5:00am 1ft 3s 13 18 mph 1013.5mb 71f 60f
4:00am 1ft 3s 18 22 mph 1013.6mb 71f 60f
3:00am 1ft 3s 16
mph
1013.4mb 71f 60f
2:00am 1ft 3s 16 18 mph 1013.5mb 72f 60f
1:00am 1ft 2s 13 18 mph 1013.7mb 72f 60f
12:00am 0.7ft 2s 13 16 mph 1013.7mb 72f 62f
Tue 08/04 11:00pm 0.7ft 2s 13 16 mph 1013.3mb 72f 63f
10:00pm 0.7ft 2s 13 18 mph 1012.7mb 72f 64f
9:00pm 0.3ft 2s 13 16 mph 1012.5mb 73f 65f
8:00pm 0.7ft 2s 11 13 mph 1012.3mb 73f 66f
7:00pm 0.7ft 2s 11 16 mph 1011.8mb 73f 67f
6:00pm 0.7ft 2s 11 13 mph 1011.6mb 73f 68f
5:00pm 0.3ft 2s 7 9 mph 1011.5mb 73f 68f
4:00pm 0.3ft 2s 9 11 mph 1011.6mb 73f 66f
3:00pm 0.7ft 2s 9 13 mph 1011.9mb 73f 64f
2:00pm 0.7ft 2s 11 13 mph 1011.8mb 73f 66f
1:00pm 1ft 2s 16 18 mph 1011.8mb 73f 68f
12:00pm 0.7ft 2s 11 16 mph 1011.5mb 73f 69f
11:00am 0.7ft 2s 11 16 mph 1011.7mb 73f 69f
10:00am 0.7ft 2s 7 11 mph 1011.8mb 73f 67f
9:00am 0.7ft 2s 11 16 mph 1011.5mb 73f 66f
7:00am 0.3ft 2s 7 9 mph 1011.3mb 72f 64f
6:00am 0.7ft 2s 7 9 mph 1011.1mb 71f 62f
5:00am 0.7ft 2s 11 13 mph 1010.5mb 71f 63f
4:00am 1ft 2s 11 13 mph 1010.1mb 71f 64f
3:00am 0.7ft 2s 11 13 mph 1009.7mb 71f 64f
2:00am 0.7ft 2s 13 16 mph 1009.4mb 71f 64f
1:00am 0.3ft 2s 13 16 mph 1008.9mb 72f 65f
12:00am 0.3ft 2s 9 11 mph 1009.1mb 72f 65f
Mon 08/03 11:00pm 0.3ft 2s 9 11 mph 1008.9mb 72f 65f
10:00pm 0.7ft 2s 11 13 mph 1008.9mb 72f 66f
9:00pm 0.3ft 2s 13 16 mph 1008.5mb 72f 67f
8:00pm 0.3ft 2s 9 13 mph 1008.2mb 72f 67f
7:00pm 0.7ft 2s 11 13 mph 1007.7mb 72f 68f
6:00pm 0.7ft 2s 11 16 mph 1006.9mb 73f 71f
5:00pm 1ft 2s 13 16 mph 1006.8mb 73f 73f
4:00pm 1ft 2s 16 20 mph 1006.7mb 72f 73f
3:00pm 1ft 2s 13 18 mph 1006.6mb 72f 73f
2:00pm 1ft 2s 16 18 mph 1006.7mb 72f 72f
1:00pm 1ft 2s 13 20 mph 1006.7mb 72f 71f
12:00pm 1ft 2s 16 20 mph 1006.3mb 72f 70f
11:00am 1ft 3s 16 20 mph 1006.2mb 71f 69f
10:00am 1ft 3s 16 18 mph 1005.7mb 71f 68f
9:00am 1.3ft 3s 13 16 mph 1005.2mb 71f 67f
8:00am 1.6ft 3s 16 20 mph 1005.1mb 71f 66f
7:00am 1.3ft 3s 18 27 mph 1004.9mb 71f 65f
6:00am 1.3ft 2s 18 22 mph 1004.6mb 71f 65f
5:00am 1.3ft 2s 16 20 mph 1004.1mb 71f 65f
4:00am 1.3ft 3s 18 22 mph 1003.8mb 71f 66f
3:00am 1.6ft 3s 13 18 mph 1003.2mb 71f 66f
2:00am 2ft 3s 16 18 mph 1003.1mb 71f 66f
1:00am 2ft 3s 20 25 mph 1002.8mb 71f 67f
12:00am 1.3ft 3s 16 18 mph 1002.6mb 72f 65f
Sun 08/02 11:00pm 1ft 3s 18 22 mph 1001.9mb 72f 66f
10:00pm 0.7ft 2s 13 16 mph 1003.7mb 72f 64f
9:00pm 1ft 3s 16 20 mph 1004.9mb 72f 64f
8:00pm 1.3ft 3s 9 16 mph 1005.8mb 72f 65f
7:00pm 1.3ft 3s 9 13 mph 1005.7mb 72f 67f
6:00pm 1.6ft 3s 9 13 mph 1005.9mb 72f 65f
5:00pm 1.3ft 3s 20 25 mph 1007.2mb 72f 64f
4:00pm 1ft 3s 9 11 mph 1005.6mb 73f 68f
3:00pm 1.3ft 3s 13 18 mph 1007.9mb 73f 70f
2:00pm 1.3ft 3s 13 16 mph 1006.8mb 73f 76f
1:00pm 1ft 2s 16 18 mph 1007.4mb 73f 76f
12:00pm 0.7ft 2s 13 16 mph 1008.2mb 73f 75f
11:00am 0.7ft 2s 9
mph
1009.1mb 73f 73f
10:00am 0.7ft 2s 13
mph
1009mb 73f 73f
9:00am 0.7ft 2s 11 13 mph 1009.8mb 72f 70f
8:00am 0.7ft 2s 13
mph
1010mb 72f 68f
7:00am 0.3ft 2s 9 11 mph 1010mb 72f 66f
6:00am 0.3ft 2s 7 9 mph 1009.9mb 73f 67f
5:00am 0.3ft 2s 9 11 mph 1009.5mb 73f 66f
4:00am 0.7ft 2s 9 11 mph 1009.6mb 73f 66f
3:00am 0.7ft 2s 11
mph
1009.7mb 73f 66f
2:00am 0.7ft 2s 9 11 mph 1009.8mb 73f 67f
1:00am 0.7ft 2s 11 13 mph 1010.1mb 73f 69f
12:00am 0.3ft 3s 9 11 mph 1010.3mb 73f 68f
Sat 08/01 11:00pm 0.3ft 2s 7 9 mph 1010.4mb 73f 68f
10:00pm 0.3ft 3s 7 9 mph 1010.6mb 73f 69f
9:00pm 0.3ft 2s 7 9 mph 1010.6mb 73f 69f
8:00pm 0.7ft 2s 9 11 mph 1010.1mb 74f 71f
7:00pm 0.7ft 2s 13 16 mph 1009.5mb 74f 73f
6:00pm 0.7ft 2s 11 13 mph 1009.1mb 74f 74f
5:00pm 1ft 2s 13 18 mph 1009.1mb 73f 74f
4:00pm 1ft 2s 13 18 mph 1009.3mb 73f 73f
3:00pm 1ft 2s 16 20 mph 1009.2mb 73f 73f
2:00pm 1ft 2s 16 18 mph 1009.7mb 73f 73f